createdAt,value
2022-08-29T00:00:50.905Z,88.81
2022-08-29T00:03:19.330Z,89.05
2022-08-29T00:05:50.113Z,89.62
2022-08-29T00:08:19.402Z,90.68
2022-08-29T00:10:48.804Z,90.32
2022-08-29T00:13:17.475Z,89.39
2022-08-29T00:15:46.403Z,87.85
2022-08-29T00:18:19.250Z,87.00
2022-08-29T00:20:48.736Z,88.46
2022-08-29T00:23:18.377Z,89.34
2022-08-29T00:25:47.208Z,88.12
2022-08-29T00:28:15.882Z,87.96
2022-08-29T00:30:45.103Z,87.36
2022-08-29T00:33:13.623Z,88.75
2022-08-29T00:35:44.858Z,88.97
2022-08-29T00:38:18.259Z,89.97
2022-08-29T00:40:55.248Z,90.82
2022-08-29T00:43:31.190Z,90.13
2022-08-29T00:46:36.842Z,91.16
2022-08-29T00:49:33.198Z,89.38
2022-08-29T00:52:20.113Z,89.12
2022-08-29T00:54:53.026Z,88.87
2022-08-29T00:57:23.248Z,89.82
2022-08-29T00:59:52.719Z,90.02
2022-08-29T01:02:21.882Z,90.75
2022-08-29T01:04:51.101Z,90.57
2022-08-29T01:07:20.477Z,91.14
2022-08-29T01:09:49.088Z,92.41
2022-08-29T01:12:17.843Z,93.26
2022-08-29T01:15:02.326Z,93.00
2022-08-29T01:17:42.597Z,93.31
2022-08-29T01:21:02.006Z,94.23
2022-08-29T01:24:01.358Z,94.32
2022-08-29T01:26:31.440Z,95.09
2022-08-29T01:29:00.550Z,95.46
2022-08-29T01:31:56.625Z,95.41
2022-08-29T01:34:30.459Z,95.78
2022-08-29T01:37:06.554Z,96.85
2022-08-29T01:39:39.765Z,96.63
2022-08-29T01:42:22.792Z,97.32
2022-08-29T01:44:59.491Z,95.77
2022-08-29T01:47:38.022Z,96.38
2022-08-29T01:50:15.315Z,96.99
2022-08-29T01:52:44.516Z,96.71
2022-08-29T01:55:13.185Z,97.76
2022-08-29T01:57:42.726Z,97.45
2022-08-29T02:00:13.115Z,98.73
2022-08-29T02:02:43.514Z,97.89
2022-08-29T02:05:12.426Z,99.95
2022-08-29T02:07:41.229Z,99.28
2022-08-29T02:10:10.705Z,99.73
2022-08-29T02:12:39.383Z,99.90
2022-08-29T02:15:08.787Z,99.79
2022-08-29T02:17:39.275Z,98.07
2022-08-29T02:20:09.286Z,98.40
2022-08-29T02:22:40.763Z,97.91
2022-08-29T02:25:28.653Z,98.14
2022-08-29T02:27:58.453Z,98.15
2022-08-29T02:30:27.223Z,99.00
2022-08-29T02:32:55.962Z,98.11
2022-08-29T02:35:24.691Z,99.43
2022-08-29T02:37:53.592Z,99.42
2022-08-29T02:40:24.627Z,99.09
2022-08-29T02:43:01.289Z,98.87
2022-08-29T02:45:30.968Z,98.82
2022-08-29T02:48:00.339Z,98.77
2022-08-29T02:50:29.020Z,98.61
2022-08-29T02:52:58.090Z,98.59
2022-08-29T02:55:27.432Z,100.00
2022-08-29T02:57:56.153Z,100.00
2022-08-29T03:00:27.925Z,100.00
2022-08-29T03:02:57.629Z,100.00
2022-08-29T03:05:33.393Z,99.25
2022-08-29T03:08:08.257Z,100.00
2022-08-29T03:10:38.142Z,100.00
2022-08-29T03:13:06.901Z,100.00
2022-08-29T03:15:36.489Z,100.00
2022-08-29T03:18:05.930Z,100.00
2022-08-29T03:20:38.738Z,100.00
2022-08-29T03:23:07.986Z,100.00
2022-08-29T03:25:37.628Z,100.00
2022-08-29T03:28:06.286Z,100.00
2022-08-29T03:30:35.413Z,100.00
2022-08-29T03:33:09.865Z,100.00
2022-08-29T03:35:40.938Z,100.00
2022-08-29T03:38:09.831Z,100.00
2022-08-29T03:40:42.660Z,100.00
2022-08-29T03:43:11.877Z,100.00
2022-08-29T03:45:40.499Z,100.00
2022-08-29T03:48:09.141Z,100.00
2022-08-29T03:50:38.573Z,100.00
2022-08-29T03:53:07.405Z,100.00
2022-08-29T03:55:36.116Z,100.00
2022-08-29T03:58:04.931Z,100.00
2022-08-29T04:00:34.303Z,100.00
2022-08-29T04:03:04.068Z,100.00
2022-08-29T04:05:32.799Z,100.00
2022-08-29T04:08:03.459Z,100.00
2022-08-29T04:10:38.556Z,100.00
2022-08-29T04:13:09.147Z,100.00
2022-08-29T04:15:41.789Z,100.00
2022-08-29T04:18:12.180Z,100.00
2022-08-29T04:20:45.099Z,100.00
2022-08-29T04:23:14.854Z,100.00
2022-08-29T04:25:45.379Z,100.00
2022-08-29T04:28:15.202Z,100.00
2022-08-29T04:30:52.803Z,100.00
2022-08-29T04:33:27.316Z,100.00
2022-08-29T04:35:55.936Z,100.00
2022-08-29T04:38:24.512Z,100.00
2022-08-29T04:40:53.179Z,100.00
2022-08-29T04:43:21.832Z,100.00
2022-08-29T04:46:03.259Z,100.00
2022-08-29T04:48:31.947Z,100.00
2022-08-29T04:51:02.789Z,100.00
2022-08-29T04:53:31.526Z,96.81
2022-08-29T04:56:07.177Z,98.33
2022-08-29T04:58:40.931Z,98.03
2022-08-29T05:01:23.023Z,95.85
2022-08-29T05:03:54.449Z,96.12
2022-08-29T05:06:25.263Z,98.52
2022-08-29T05:08:59.170Z,96.32
2022-08-29T05:11:32.196Z,97.67
2022-08-29T05:14:02.798Z,99.00
2022-08-29T05:16:35.137Z,99.12
2022-08-29T05:19:08.366Z,99.61
2022-08-29T05:21:40.939Z,99.27
2022-08-29T05:24:12.707Z,98.19
2022-08-29T05:26:45.676Z,97.87
2022-08-29T05:29:15.677Z,97.14
2022-08-29T05:31:45.590Z,94.14
2022-08-29T05:34:32.562Z,94.73
2022-08-29T05:37:10.448Z,93.92
2022-08-29T05:39:40.719Z,93.71
2022-08-29T05:42:12.254Z,93.34
2022-08-29T05:44:41.675Z,91.09
2022-08-29T05:47:14.447Z,88.67
2022-08-29T05:49:46.117Z,86.05
2022-08-29T05:52:19.656Z,86.61
2022-08-29T05:54:49.099Z,87.43
2022-08-29T05:57:22.615Z,88.48
2022-08-29T05:59:54.034Z,88.30
2022-08-29T06:02:24.530Z,87.11
2022-08-29T06:04:53.715Z,85.96
2022-08-29T06:07:22.238Z,86.26
2022-08-29T06:09:54.661Z,82.00
2022-08-29T06:12:29.046Z,73.64
2022-08-29T06:14:58.371Z,68.63
2022-08-29T06:17:28.145Z,65.45
2022-08-29T06:19:56.761Z,68.44
2022-08-29T06:22:25.300Z,73.31
2022-08-29T06:24:57.735Z,68.40
2022-08-29T06:27:29.093Z,67.19
2022-08-29T06:30:01.654Z,61.46
2022-08-29T06:32:30.497Z,62.18
2022-08-29T06:34:59.134Z,66.59
2022-08-29T06:37:27.727Z,67.84
2022-08-29T06:39:56.401Z,68.31
2022-08-29T06:42:25.662Z,66.62
2022-08-29T06:44:57.977Z,67.40
2022-08-29T06:47:26.698Z,59.40
2022-08-29T06:49:55.379Z,46.38
2022-08-29T06:52:23.925Z,44.49
2022-08-29T06:54:53.148Z,42.82
2022-08-29T06:57:22.069Z,41.99
2022-08-29T06:59:50.691Z,47.90
2022-08-29T07:02:19.241Z,59.48
2022-08-29T07:04:47.805Z,68.49
2022-08-29T07:07:16.463Z,69.67
2022-08-29T07:09:44.899Z,69.04
2022-08-29T07:12:13.334Z,67.85
2022-08-29T07:14:41.935Z,68.35
2022-08-29T07:17:10.893Z,67.29
2022-08-29T07:19:48.477Z,66.72
2022-08-29T07:22:17.322Z,55.78
2022-08-29T07:24:45.902Z,43.94
2022-08-29T07:27:15.675Z,41.75
2022-08-29T07:29:47.660Z,44.99
2022-08-29T07:32:21.710Z,55.28
2022-08-29T07:34:56.084Z,64.71
2022-08-29T07:37:25.137Z,63.81
2022-08-29T07:39:53.901Z,63.27
2022-08-29T07:42:22.514Z,61.82
2022-08-29T07:44:50.964Z,61.86
2022-08-29T07:47:19.523Z,61.22
2022-08-29T07:49:50.946Z,62.29
2022-08-29T07:52:20.271Z,62.87
2022-08-29T07:54:49.681Z,62.45
2022-08-29T07:57:19.349Z,64.99
2022-08-29T07:59:48.257Z,67.00
2022-08-29T08:02:16.937Z,65.11
2022-08-29T08:04:46.128Z,61.98
2022-08-29T08:07:15.177Z,61.31
2022-08-29T08:09:45.014Z,60.22
2022-08-29T08:12:13.467Z,59.19
2022-08-29T08:14:42.093Z,59.92
2022-08-29T08:17:11.655Z,57.68
2022-08-29T08:19:40.249Z,56.98
2022-08-29T08:22:10.123Z,56.59
2022-08-29T08:24:38.649Z,55.55
2022-08-29T08:27:07.321Z,54.97
2022-08-29T08:29:36.882Z,56.03
2022-08-29T08:32:05.371Z,55.54
2022-08-29T08:34:35.745Z,56.12
2022-08-29T08:37:09.303Z,56.12
2022-08-29T08:39:38.961Z,54.65
2022-08-29T08:42:43.473Z,52.78
2022-08-29T08:45:33.526Z,55.78
2022-08-29T08:48:22.356Z,56.72
2022-08-29T08:51:00.412Z,55.48
2022-08-29T08:53:50.637Z,57.22
2022-08-29T08:56:52.381Z,55.22
2022-08-29T08:59:45.454Z,54.71
2022-08-29T09:03:09.447Z,54.33
2022-08-29T09:06:12.585Z,54.60
2022-08-29T09:09:14.382Z,54.36
2022-08-29T09:12:16.531Z,55.87
2022-08-29T09:15:02.742Z,54.48
2022-08-29T09:18:23.859Z,54.45
2022-08-29T09:20:54.305Z,54.16
2022-08-29T09:23:45.550Z,54.96
2022-08-29T09:26:19.279Z,55.02
2022-08-29T09:28:48.864Z,54.96
2022-08-29T09:31:33.444Z,55.29
2022-08-29T09:34:11.930Z,53.72
2022-08-29T09:36:47.426Z,54.18
2022-08-29T09:39:33.799Z,53.92
2022-08-29T09:42:23.127Z,52.93
2022-08-29T09:45:08.820Z,52.35
2022-08-29T09:47:37.420Z,54.89
2022-08-29T09:50:22.300Z,55.22
2022-08-29T09:53:01.062Z,53.56
2022-08-29T09:55:45.452Z,54.59
2022-08-29T09:58:16.694Z,55.11
2022-08-29T10:01:04.902Z,54.50
2022-08-29T10:03:42.724Z,51.17
2022-08-29T10:06:23.117Z,50.89
2022-08-29T10:09:01.679Z,52.60
2022-08-29T10:12:04.276Z,53.98
2022-08-29T10:15:03.357Z,54.91
2022-08-29T10:18:07.974Z,53.02
2022-08-29T10:21:07.453Z,54.47
2022-08-29T10:24:38.699Z,54.85
2022-08-29T10:27:37.802Z,53.38
2022-08-29T10:30:20.962Z,54.53
2022-08-29T10:33:20.154Z,55.35
2022-08-29T10:36:34.913Z,52.18
2022-08-29T10:39:06.056Z,49.78
2022-08-29T10:42:19.462Z,51.90
2022-08-29T10:45:06.036Z,52.97
2022-08-29T10:48:22.058Z,51.88
2022-08-29T10:51:24.328Z,49.16
2022-08-29T10:54:05.557Z,47.31
2022-08-29T10:56:45.335Z,48.29
2022-08-29T11:00:16.689Z,46.49
2022-08-29T11:03:09.235Z,46.43
2022-08-29T11:05:49.795Z,45.21
2022-08-29T11:08:34.633Z,44.26
2022-08-29T11:11:03.441Z,44.98
2022-08-29T11:14:07.408Z,50.84
2022-08-29T11:16:55.616Z,51.35
2022-08-29T11:20:03.091Z,52.94
2022-08-29T11:23:04.643Z,53.18
2022-08-29T11:25:41.981Z,51.62
2022-08-29T11:29:10.301Z,54.69
2022-08-29T11:32:02.352Z,55.25
2022-08-29T11:35:01.175Z,55.59
2022-08-29T11:37:38.329Z,54.08
2022-08-29T11:43:44.091Z,54.65
2022-08-29T11:46:18.133Z,55.00
2022-08-29T11:48:56.819Z,54.33
2022-08-29T11:51:36.159Z,54.62
2022-08-29T11:54:43.006Z,54.35
2022-08-29T11:57:11.309Z,53.50
2022-08-29T11:59:48.970Z,51.51
2022-08-29T12:02:32.426Z,51.19
2022-08-29T12:05:30.033Z,52.51
2022-08-29T12:08:26.371Z,52.26
2022-08-29T12:10:56.775Z,51.04
2022-08-29T12:14:01.408Z,51.42
2022-08-29T12:16:53.429Z,51.80
2022-08-29T12:19:52.050Z,49.97
2022-08-29T12:23:08.429Z,50.41
2022-08-29T12:29:02.700Z,50.79
2022-08-29T12:32:29.788Z,50.66
2022-08-29T12:35:54.524Z,52.20
2022-08-29T12:38:50.070Z,53.13
2022-08-29T12:41:46.832Z,52.80
2022-08-29T12:44:22.765Z,51.22
2022-08-29T12:47:12.688Z,50.16
2022-08-29T12:49:55.987Z,49.16
2022-08-29T12:52:30.822Z,48.69
2022-08-29T12:55:28.971Z,48.80
2022-08-29T12:57:58.498Z,47.90
2022-08-29T13:00:33.469Z,48.33
2022-08-29T13:03:20.705Z,48.19
2022-08-29T13:05:49.604Z,47.93
2022-08-29T13:08:33.447Z,47.57
2022-08-29T13:11:12.812Z,47.60
2022-08-29T13:13:41.441Z,49.71
2022-08-29T13:16:29.127Z,50.44
2022-08-29T13:19:11.033Z,50.48
2022-08-29T13:21:40.318Z,51.29
2022-08-29T13:24:19.616Z,51.66
2022-08-29T13:27:05.511Z,51.24
2022-08-29T13:29:37.515Z,50.95
2022-08-29T13:32:27.000Z,48.93
2022-08-29T13:35:15.583Z,49.15
2022-08-29T13:37:59.929Z,48.19
2022-08-29T13:40:42.865Z,48.00
2022-08-29T13:43:43.399Z,46.91
2022-08-29T13:46:21.583Z,46.67
2022-08-29T13:49:03.811Z,46.67
2022-08-29T13:51:32.340Z,46.75
2022-08-29T13:54:00.872Z,46.04
2022-08-29T13:56:33.753Z,45.98
2022-08-29T13:59:04.152Z,46.40
2022-08-29T14:02:08.532Z,45.02
2022-08-29T14:04:37.631Z,44.22
2022-08-29T14:07:07.924Z,44.39
2022-08-29T14:09:42.755Z,44.83
2022-08-29T14:12:12.803Z,43.98
2022-08-29T14:14:43.547Z,45.53
2022-08-29T14:17:18.222Z,46.88
2022-08-29T14:19:48.243Z,46.33
2022-08-29T14:22:17.125Z,46.67
2022-08-29T14:24:51.976Z,48.00
2022-08-29T14:27:22.231Z,47.61
2022-08-29T14:29:51.562Z,46.89
2022-08-29T14:32:20.061Z,47.14
2022-08-29T14:34:51.088Z,48.13
2022-08-29T14:37:21.215Z,49.23
2022-08-29T14:39:51.013Z,49.76
2022-08-29T14:42:19.985Z,49.23
2022-08-29T14:44:48.521Z,49.97
2022-08-29T14:47:17.006Z,50.60
2022-08-29T14:49:45.605Z,50.81
2022-08-29T14:52:15.249Z,51.37
2022-08-29T14:54:44.763Z,50.97
2022-08-29T14:57:13.554Z,51.47
2022-08-29T14:59:42.398Z,51.52
2022-08-29T15:02:11.141Z,52.57
2022-08-29T15:04:40.213Z,51.74
2022-08-29T15:07:13.567Z,52.31
2022-08-29T15:09:44.114Z,52.01
2022-08-29T15:12:17.015Z,51.64
2022-08-29T15:14:47.029Z,51.15
2022-08-29T15:17:15.648Z,51.90
2022-08-29T15:20:31.648Z,52.07
2022-08-29T15:22:33.768Z,52.06
2022-08-29T15:25:03.598Z,53.05
2022-08-29T15:27:32.427Z,53.51
2022-08-29T15:30:00.931Z,53.80
2022-08-29T15:32:29.438Z,55.11
2022-08-29T15:34:58.187Z,57.56
2022-08-29T15:37:27.071Z,64.64
2022-08-29T15:39:55.629Z,67.94
2022-08-29T15:42:29.650Z,70.22
2022-08-29T15:45:07.691Z,72.43
2022-08-29T15:47:37.424Z,71.77
2022-08-29T15:50:08.057Z,72.31
2022-08-29T15:52:37.745Z,73.46
2022-08-29T15:55:08.141Z,76.46
2022-08-29T15:57:51.189Z,78.59
2022-08-29T16:00:30.705Z,77.39
2022-08-29T16:03:03.047Z,75.42
2022-08-29T16:05:33.810Z,76.97
2022-08-29T16:08:03.259Z,76.73
2022-08-29T16:10:33.635Z,75.24
2022-08-29T16:13:02.956Z,74.45
2022-08-29T16:15:33.562Z,75.12
2022-08-29T16:18:04.257Z,75.48
2022-08-29T16:20:33.345Z,75.96
2022-08-29T16:23:03.094Z,76.65
2022-08-29T16:25:33.768Z,78.42
2022-08-29T16:28:03.488Z,76.23
2022-08-29T16:30:35.121Z,74.59
2022-08-29T16:33:10.597Z,75.27
2022-08-29T16:35:39.201Z,77.06
2022-08-29T16:38:07.931Z,77.99
2022-08-29T16:40:36.953Z,79.87
2022-08-29T16:43:06.423Z,79.55
2022-08-29T16:45:35.621Z,80.12
2022-08-29T16:48:15.463Z,78.74
2022-08-29T16:50:47.280Z,81.03
2022-08-29T16:53:16.101Z,78.61
2022-08-29T16:55:44.789Z,78.83
2022-08-29T16:58:31.894Z,76.27
2022-08-29T17:01:01.075Z,75.82
2022-08-29T17:03:29.687Z,75.96
2022-08-29T17:05:58.224Z,76.66
2022-08-29T17:08:27.005Z,77.70
2022-08-29T17:10:56.728Z,77.90
2022-08-29T17:13:25.566Z,77.67
2022-08-29T17:15:54.619Z,77.19
2022-08-29T17:18:23.304Z,79.25
2022-08-29T17:20:54.200Z,77.73
2022-08-29T17:23:23.081Z,78.15
2022-08-29T17:25:51.666Z,76.54
2022-08-29T17:28:20.323Z,76.66
2022-08-29T17:30:49.715Z,76.31
2022-08-29T17:33:19.773Z,76.39
2022-08-29T17:35:49.231Z,76.01
2022-08-29T17:38:18.628Z,76.25
2022-08-29T17:40:48.045Z,76.26
2022-08-29T17:43:18.887Z,76.11
2022-08-29T17:45:48.336Z,76.29
2022-08-29T17:48:17.499Z,77.55
2022-08-29T17:50:49.375Z,78.76
2022-08-29T17:53:21.278Z,80.45
2022-08-29T17:55:51.243Z,80.94
2022-08-29T17:58:24.615Z,80.06
2022-08-29T18:00:54.778Z,79.36
2022-08-29T18:03:25.042Z,79.66
2022-08-29T18:05:53.633Z,80.07
2022-08-29T18:08:22.344Z,78.65
2022-08-29T18:10:51.834Z,80.21
2022-08-29T18:13:21.902Z,80.33
2022-08-29T18:15:52.783Z,80.94
2022-08-29T18:18:21.967Z,80.14
2022-08-29T18:20:51.021Z,80.69
2022-08-29T18:23:20.198Z,80.59
2022-08-29T18:25:48.959Z,79.73
2022-08-29T18:28:17.827Z,79.59
2022-08-29T18:30:46.800Z,78.87
2022-08-29T18:33:16.617Z,78.27
2022-08-29T18:35:45.492Z,79.19
2022-08-29T18:38:15.357Z,79.83
2022-08-29T18:40:44.858Z,79.53
2022-08-29T18:43:15.243Z,80.46
2022-08-29T18:45:43.902Z,79.25
2022-08-29T18:48:12.587Z,81.19
2022-08-29T18:50:41.265Z,82.16
2022-08-29T18:53:16.341Z,83.24
2022-08-29T18:55:51.231Z,82.31
2022-08-29T18:58:26.903Z,82.23
2022-08-29T19:00:59.336Z,84.48
2022-08-29T19:03:27.913Z,85.07
2022-08-29T19:05:56.508Z,85.34
2022-08-29T19:08:25.337Z,83.79
2022-08-29T19:10:55.727Z,84.07
2022-08-29T19:13:25.362Z,85.06
2022-08-29T19:15:58.771Z,84.22
2022-08-29T19:18:28.059Z,84.35
2022-08-29T19:21:02.565Z,83.77
2022-08-29T19:23:39.200Z,84.79
2022-08-29T19:26:20.580Z,86.18
2022-08-29T19:28:49.127Z,87.17
2022-08-29T19:31:18.453Z,85.65
2022-08-29T19:33:48.234Z,86.16
2022-08-29T19:36:17.751Z,85.49
2022-08-29T19:38:47.371Z,84.42
2022-08-29T19:41:16.519Z,85.90
2022-08-29T19:43:45.881Z,84.99
2022-08-29T19:46:20.865Z,85.11
2022-08-29T19:48:52.463Z,84.56
2022-08-29T19:51:25.461Z,84.90
2022-08-29T19:53:59.269Z,85.33
2022-08-29T19:56:29.286Z,85.51
2022-08-29T19:58:57.990Z,86.47
2022-08-29T20:01:27.391Z,88.22
2022-08-29T20:03:56.363Z,88.68
2022-08-29T20:06:25.107Z,88.85
2022-08-29T20:08:53.828Z,88.63
2022-08-29T20:11:27.006Z,88.53
2022-08-29T20:14:00.731Z,88.75
2022-08-29T20:16:35.941Z,88.08
2022-08-29T20:19:05.620Z,89.03
2022-08-29T20:21:36.014Z,88.97
2022-08-29T20:24:06.121Z,88.27
2022-08-29T20:26:37.481Z,89.10
2022-08-29T20:29:11.360Z,88.57
2022-08-29T20:31:40.826Z,89.96
2022-08-29T20:34:10.496Z,90.93
2022-08-29T20:36:58.154Z,90.22
2022-08-29T20:39:27.143Z,90.31
2022-08-29T20:41:59.676Z,90.51
2022-08-29T20:44:34.050Z,90.20
2022-08-29T20:47:03.071Z,92.21
2022-08-29T20:49:32.241Z,93.00
2022-08-29T20:52:02.132Z,91.38
2022-08-29T20:54:31.774Z,91.95
2022-08-29T20:57:00.464Z,93.68
2022-08-29T20:59:32.663Z,93.42
2022-08-29T21:02:05.047Z,93.66
2022-08-29T21:04:52.709Z,93.43
2022-08-29T21:07:22.200Z,94.74
2022-08-29T21:09:52.054Z,95.83
2022-08-29T21:12:22.425Z,94.57
2022-08-29T21:14:56.170Z,93.54
2022-08-29T21:17:24.792Z,94.09
2022-08-29T21:19:53.279Z,94.45
2022-08-29T21:22:24.956Z,95.09
2022-08-29T21:24:56.109Z,95.97
2022-08-29T21:27:24.773Z,95.59
2022-08-29T21:29:56.807Z,95.96
2022-08-29T21:32:25.415Z,95.75
2022-08-29T21:34:53.949Z,96.33
2022-08-29T21:37:22.896Z,94.95
2022-08-29T21:39:51.402Z,95.41
2022-08-29T21:42:19.931Z,95.09
2022-08-29T21:44:48.596Z,95.72
2022-08-29T21:47:17.998Z,95.17
2022-08-29T21:49:48.606Z,95.46
2022-08-29T21:52:17.743Z,97.58
2022-08-29T21:54:46.657Z,95.65
2022-08-29T21:57:19.072Z,97.77
2022-08-29T21:59:48.803Z,96.63
2022-08-29T22:02:17.693Z,97.64
2022-08-29T22:04:46.493Z,98.31
2022-08-29T22:07:16.226Z,100.00
2022-08-29T22:09:45.292Z,100.00
2022-08-29T22:12:13.840Z,100.00
2022-08-29T22:15:00.795Z,100.00
2022-08-29T22:17:29.225Z,99.61
2022-08-29T22:19:57.910Z,97.84
2022-08-29T22:22:26.423Z,99.56
2022-08-29T22:24:55.014Z,100.00
2022-08-29T22:27:23.541Z,100.00
2022-08-29T22:29:52.163Z,100.00
2022-08-29T22:32:20.771Z,100.00
2022-08-29T22:34:49.406Z,100.00
2022-08-29T22:37:18.490Z,100.00
2022-08-29T22:39:47.152Z,100.00
2022-08-29T22:42:15.657Z,100.00
2022-08-29T22:45:03.389Z,100.00
2022-08-29T22:47:32.897Z,100.00
2022-08-29T22:50:02.644Z,100.00
2022-08-29T22:52:32.263Z,100.00
2022-08-29T22:55:01.158Z,100.00
2022-08-29T22:57:29.759Z,100.00
2022-08-29T22:59:58.461Z,99.90
2022-08-29T23:02:27.538Z,99.41
2022-08-29T23:04:56.245Z,98.71
2022-08-29T23:07:25.340Z,100.00
2022-08-29T23:09:56.029Z,100.00
2022-08-29T23:12:24.747Z,100.00
2022-08-29T23:14:53.577Z,100.00
2022-08-29T23:17:22.272Z,100.00
2022-08-29T23:19:51.680Z,100.00
2022-08-29T23:22:20.294Z,100.00
2022-08-29T23:24:53.951Z,100.00
2022-08-29T23:27:31.309Z,100.00
2022-08-29T23:30:02.355Z,100.00
2022-08-29T23:32:31.022Z,100.00
2022-08-29T23:35:00.054Z,100.00
2022-08-29T23:37:28.767Z,100.00
2022-08-29T23:39:57.619Z,100.00
2022-08-29T23:42:26.605Z,100.00
2022-08-29T23:44:55.276Z,100.00
2022-08-29T23:47:23.894Z,100.00
2022-08-29T23:49:53.283Z,100.00
2022-08-29T23:52:21.963Z,100.00
2022-08-29T23:54:50.685Z,100.00
2022-08-29T23:57:20.105Z,100.00
